createdAt,value
2022-12-08T00:03:34.529Z,-0.73
2022-12-08T00:06:51.642Z,-0.63
2022-12-08T00:09:41.684Z,-0.68
2022-12-08T00:12:28.705Z,-0.82
2022-12-08T00:15:15.842Z,-0.73
2022-12-08T00:18:02.897Z,-0.67
2022-12-08T00:20:58.201Z,-0.39
2022-12-08T00:23:45.267Z,-0.55
2022-12-08T00:26:32.423Z,-0.55
2022-12-08T00:29:19.812Z,-0.61
2022-12-08T00:32:07.296Z,-0.51
2022-12-08T00:34:54.448Z,-0.44
2022-12-08T00:37:41.512Z,-0.72
2022-12-08T00:40:28.591Z,-0.57
2022-12-08T00:43:15.861Z,-0.54
2022-12-08T00:46:02.962Z,-0.46
2022-12-08T00:48:50.124Z,-0.56
2022-12-08T00:51:37.579Z,-0.63
2022-12-08T00:54:24.811Z,-0.50
2022-12-08T00:57:11.849Z,-0.58
2022-12-08T00:59:59.002Z,-0.76
2022-12-08T01:02:46.126Z,-0.63
2022-12-08T01:05:33.194Z,-0.63
2022-12-08T01:08:20.359Z,-0.72
2022-12-08T01:11:14.467Z,-0.55
2022-12-08T01:14:02.093Z,-0.53
2022-12-08T01:16:49.338Z,-0.69
2022-12-08T01:19:37.905Z,-0.59
2022-12-08T01:22:25.260Z,-0.56
2022-12-08T01:25:12.449Z,-0.63
2022-12-08T01:27:59.492Z,-0.62
2022-12-08T01:30:46.610Z,-0.65
2022-12-08T01:33:33.744Z,-0.89
2022-12-08T01:36:27.079Z,-0.73
2022-12-08T01:39:17.302Z,-0.76
2022-12-08T01:42:04.364Z,-0.78
2022-12-08T01:45:06.774Z,-0.87
2022-12-08T01:47:59.172Z,-0.90
2022-12-08T01:50:48.168Z,-1.06
2022-12-08T01:53:35.295Z,-1.07
2022-12-08T01:56:35.188Z,-0.98
2022-12-08T01:59:22.723Z,-1.05
2022-12-08T02:02:11.509Z,-1.34
2022-12-08T02:04:58.822Z,-1.06
2022-12-08T02:07:47.002Z,-1.04
2022-12-08T02:10:38.544Z,-1.19
2022-12-08T02:13:26.100Z,-1.12
2022-12-08T02:16:31.791Z,-1.14
2022-12-08T02:19:59.639Z,-1.21
2022-12-08T02:22:57.683Z,-1.13
2022-12-08T02:25:47.815Z,-1.14
2022-12-08T02:29:10.235Z,-1.19
2022-12-08T02:32:26.884Z,-1.10
2022-12-08T02:35:27.477Z,-1.13
2022-12-08T02:38:20.413Z,-1.10
2022-12-08T02:41:35.249Z,-1.15
2022-12-08T02:44:29.130Z,-1.06
2022-12-08T02:47:19.047Z,-1.09
2022-12-08T02:50:07.612Z,-1.26
2022-12-08T02:52:55.252Z,-1.13
2022-12-08T02:56:07.149Z,-1.08
2022-12-08T02:59:12.605Z,-1.06
2022-12-08T03:02:16.758Z,-0.92
2022-12-08T03:05:36.346Z,-0.91
2022-12-08T03:08:23.428Z,-0.96
2022-12-08T03:11:22.301Z,-0.98
2022-12-08T03:14:14.471Z,-0.93
2022-12-08T03:17:04.701Z,-0.89
2022-12-08T03:19:53.793Z,-0.79
2022-12-08T03:22:42.325Z,-0.98
2022-12-08T03:25:34.196Z,-0.84
2022-12-08T03:28:23.794Z,-0.78
2022-12-08T03:31:13.323Z,-0.64
2022-12-08T03:34:02.907Z,-0.79
2022-12-08T03:36:52.100Z,-0.87
2022-12-08T03:39:39.148Z,-0.90
2022-12-08T03:42:26.292Z,-0.99
2022-12-08T03:45:13.384Z,-0.78
2022-12-08T03:48:00.471Z,-0.94
2022-12-08T03:50:47.509Z,-0.93
2022-12-08T03:53:34.664Z,-0.93
2022-12-08T03:56:30.827Z,-0.76
2022-12-08T03:59:18.020Z,-0.81
2022-12-08T04:02:05.099Z,-0.83
2022-12-08T04:04:58.501Z,-0.71
2022-12-08T04:07:45.661Z,-0.87
2022-12-08T04:10:32.749Z,-0.70
2022-12-08T04:13:19.955Z,-0.70
2022-12-08T04:16:07.744Z,-0.71
2022-12-08T04:18:54.938Z,-0.72
2022-12-08T04:21:42.024Z,-0.73
2022-12-08T04:24:29.192Z,-0.78
2022-12-08T04:27:16.246Z,-0.77
2022-12-08T04:30:03.979Z,-0.65
2022-12-08T04:32:51.327Z,-0.76
2022-12-08T04:35:38.379Z,-0.54
2022-12-08T04:38:25.569Z,-0.56
2022-12-08T04:41:12.624Z,-0.74
2022-12-08T04:43:59.705Z,-0.28
2022-12-08T04:46:48.950Z,-0.34
2022-12-08T04:49:36.120Z,-0.43
2022-12-08T04:52:23.185Z,-0.53
2022-12-08T04:55:10.306Z,-0.77
2022-12-08T04:57:57.373Z,-0.52
2022-12-08T05:00:44.726Z,-0.50
2022-12-08T05:03:31.787Z,-0.47
2022-12-08T05:06:18.862Z,-0.63
2022-12-08T05:09:06.112Z,-0.48
2022-12-08T05:11:53.225Z,-0.73
2022-12-08T05:14:40.356Z,-0.59
2022-12-08T05:17:27.448Z,-0.75
2022-12-08T05:20:14.585Z,-0.42
2022-12-08T05:23:01.712Z,-0.53
2022-12-08T05:25:48.764Z,-0.62
2022-12-08T05:28:43.895Z,-0.57
2022-12-08T05:31:31.663Z,-0.70
2022-12-08T05:34:25.781Z,-0.49
2022-12-08T05:37:12.867Z,-0.60
2022-12-08T05:40:00.112Z,-0.61
2022-12-08T05:42:47.074Z,-0.29
2022-12-08T05:45:34.513Z,-0.32
2022-12-08T05:48:21.625Z,-0.31
2022-12-08T05:51:19.925Z,-0.42
2022-12-08T05:54:06.903Z,-0.44
2022-12-08T05:56:53.884Z,-0.36
2022-12-08T05:59:40.910Z,-0.35
2022-12-08T06:02:28.060Z,-0.45
2022-12-08T06:05:15.133Z,-0.33
2022-12-08T06:08:02.518Z,-0.28
2022-12-08T06:10:49.869Z,-0.26
2022-12-08T06:13:37.032Z,-0.23
2022-12-08T06:16:26.423Z,-0.43
2022-12-08T06:19:13.590Z,-0.43
2022-12-08T06:22:00.686Z,-0.19
2022-12-08T06:24:47.759Z,-0.16
2022-12-08T06:27:34.748Z,-0.32
2022-12-08T06:30:21.794Z,-0.41
2022-12-08T06:33:08.909Z,-0.45
2022-12-08T06:35:55.883Z,-0.41
2022-12-08T06:38:43.851Z,-0.15
2022-12-08T06:41:30.996Z,-0.37
2022-12-08T06:44:17.995Z,-0.45
2022-12-08T06:47:05.328Z,-0.35
2022-12-08T06:49:52.306Z,-0.23
2022-12-08T06:52:49.315Z,-0.27
2022-12-08T06:56:02.830Z,-0.35
2022-12-08T06:58:52.805Z,-0.36
2022-12-08T07:01:40.368Z,-0.45
2022-12-08T07:04:27.583Z,-0.44
2022-12-08T07:07:14.606Z,-0.36
2022-12-08T07:10:02.048Z,-0.11
2022-12-08T07:12:49.330Z,-0.05
2022-12-08T07:15:36.392Z,-0.22
2022-12-08T07:18:23.385Z,-0.19
2022-12-08T07:21:13.208Z,-0.19
2022-12-08T07:24:00.246Z,-0.20
2022-12-08T07:26:47.271Z,-0.16
2022-12-08T07:29:34.322Z,0.00
2022-12-08T07:32:21.500Z,-0.06
2022-12-08T07:35:09.660Z,0.00
2022-12-08T07:37:57.882Z,0.02
2022-12-08T07:40:44.849Z,0.00
2022-12-08T07:43:32.137Z,0.10
2022-12-08T07:46:21.266Z,0.28
2022-12-08T07:49:08.311Z,0.44
2022-12-08T07:51:55.321Z,0.49
2022-12-08T07:54:42.318Z,0.55
2022-12-08T07:57:29.350Z,0.62
2022-12-08T08:00:16.955Z,0.63
2022-12-08T08:03:04.131Z,0.84
2022-12-08T08:05:52.036Z,0.91
2022-12-08T08:08:39.179Z,0.73
2022-12-08T08:11:26.524Z,0.68
2022-12-08T08:14:13.524Z,0.62
2022-12-08T08:17:00.729Z,0.83
2022-12-08T08:19:47.829Z,0.73
2022-12-08T08:22:35.684Z,0.63
2022-12-08T08:25:22.907Z,0.62
2022-12-08T08:28:09.961Z,0.54
2022-12-08T08:30:57.352Z,0.67
2022-12-08T08:33:44.485Z,0.55
2022-12-08T08:36:31.803Z,0.34
2022-12-08T08:39:18.809Z,0.47
2022-12-08T08:42:05.871Z,0.36
2022-12-08T08:44:52.881Z,0.37
2022-12-08T08:47:39.840Z,0.40
2022-12-08T08:50:30.518Z,0.41
2022-12-08T08:53:21.796Z,0.32
2022-12-08T08:56:16.492Z,0.22
2022-12-08T08:59:04.011Z,0.26
2022-12-08T09:01:51.056Z,0.16
2022-12-08T09:04:38.166Z,0.05
2022-12-08T09:07:25.248Z,0.04
2022-12-08T09:10:12.304Z,0.04
2022-12-08T09:12:59.363Z,0.08
2022-12-08T09:15:46.497Z,0.05
2022-12-08T09:18:33.804Z,0.13
2022-12-08T09:21:24.395Z,0.18
2022-12-08T09:24:15.811Z,0.03
2022-12-08T09:27:02.887Z,-0.07
2022-12-08T09:29:49.945Z,-0.04
2022-12-08T09:32:36.985Z,0.04
2022-12-08T09:35:24.011Z,0.06
2022-12-08T09:38:11.429Z,0.38
2022-12-08T09:40:59.041Z,0.80
2022-12-08T09:44:02.768Z,1.15
2022-12-08T09:46:52.956Z,1.58
2022-12-08T09:49:46.427Z,1.83
2022-12-08T09:53:09.575Z,2.31
2022-12-08T09:56:00.932Z,2.65
2022-12-08T09:58:49.132Z,2.84
2022-12-08T10:01:41.817Z,2.86
2022-12-08T10:04:32.572Z,3.14
2022-12-08T10:07:41.978Z,3.31
2022-12-08T10:10:42.013Z,3.30
2022-12-08T10:13:43.716Z,3.12
2022-12-08T10:16:39.340Z,3.07
2022-12-08T10:19:27.899Z,3.00
2022-12-08T10:22:22.703Z,2.97
2022-12-08T10:25:44.089Z,2.94
2022-12-08T10:28:41.433Z,2.88
2022-12-08T10:31:32.847Z,2.86
2022-12-08T10:34:27.044Z,2.89
2022-12-08T10:37:19.456Z,2.82
2022-12-08T10:40:19.468Z,2.91
2022-12-08T10:43:15.795Z,2.97
2022-12-08T10:46:12.278Z,3.08
2022-12-08T10:49:05.258Z,3.08
2022-12-08T10:51:52.680Z,3.13
2022-12-08T10:54:43.707Z,3.07
2022-12-08T10:57:31.400Z,3.24
2022-12-08T11:00:27.898Z,3.23
2022-12-08T11:03:27.574Z,3.28
2022-12-08T11:06:22.236Z,3.19
2022-12-08T11:09:16.924Z,3.24
2022-12-08T11:12:24.194Z,3.30
2022-12-08T11:15:18.083Z,3.29
2022-12-08T11:18:20.916Z,3.32
2022-12-08T11:21:16.555Z,3.43
2022-12-08T11:24:15.458Z,3.52
2022-12-08T11:27:05.727Z,3.43
2022-12-08T11:29:52.757Z,3.47
2022-12-08T11:32:44.737Z,3.46
2022-12-08T11:35:39.282Z,3.43
2022-12-08T11:38:27.924Z,3.43
2022-12-08T11:41:22.682Z,3.36
2022-12-08T11:44:18.542Z,3.43
2022-12-08T11:47:11.964Z,3.51
2022-12-08T11:50:35.443Z,3.59
2022-12-08T11:53:54.517Z,3.66
2022-12-08T11:56:51.573Z,3.74
2022-12-08T11:59:44.515Z,3.61
2022-12-08T12:02:42.667Z,3.67
2022-12-08T12:06:13.184Z,3.74
2022-12-08T12:09:39.104Z,3.86
2022-12-08T12:12:56.120Z,3.93
2022-12-08T12:16:14.488Z,3.89
2022-12-08T12:19:11.364Z,3.91
2022-12-08T12:22:00.161Z,3.95
2022-12-08T12:24:51.340Z,4.08
2022-12-08T12:27:41.764Z,4.09
2022-12-08T12:30:51.531Z,3.94
2022-12-08T12:33:39.076Z,3.84
2022-12-08T12:36:26.491Z,3.82
2022-12-08T12:39:15.292Z,3.81
2022-12-08T12:42:04.825Z,3.97
2022-12-08T12:45:16.497Z,3.84
2022-12-08T12:48:03.437Z,3.95
2022-12-08T12:50:51.257Z,3.88
2022-12-08T12:53:38.194Z,3.91
2022-12-08T12:56:53.567Z,3.74
2022-12-08T12:59:55.530Z,3.76
2022-12-08T13:02:51.171Z,3.69
2022-12-08T13:05:50.819Z,3.67
2022-12-08T13:08:41.037Z,3.93
2022-12-08T13:11:28.439Z,3.70
2022-12-08T13:14:28.946Z,3.77
2022-12-08T13:17:29.524Z,3.83
2022-12-08T13:20:23.191Z,3.69
2022-12-08T13:23:27.104Z,3.80
2022-12-08T13:26:18.584Z,3.87
2022-12-08T13:29:15.435Z,3.84
2022-12-08T13:32:03.065Z,3.68
2022-12-08T13:35:00.254Z,3.64
2022-12-08T13:37:54.772Z,3.51
2022-12-08T13:40:43.883Z,3.50
2022-12-08T13:44:31.044Z,3.49
2022-12-08T13:57:02.685Z,2.89
2022-12-08T13:59:44.429Z,2.62
2022-12-08T14:02:47.045Z,2.62
2022-12-08T14:06:11.170Z,2.54
2022-12-08T14:09:02.287Z,2.55
2022-12-08T14:11:55.546Z,2.53
2022-12-08T14:15:03.603Z,2.53
2022-12-08T14:17:53.657Z,2.33
2022-12-08T14:21:05.047Z,2.12
2022-12-08T14:23:47.939Z,2.01
2022-12-08T14:26:35.550Z,1.96
2022-12-08T14:29:33.091Z,2.08
2022-12-08T14:32:44.529Z,1.97
2022-12-08T14:35:33.811Z,1.78
2022-12-08T14:38:22.580Z,1.61
2022-12-08T14:41:11.969Z,1.52
2022-12-08T14:44:01.352Z,1.26
2022-12-08T14:47:09.839Z,1.16
2022-12-08T14:49:57.318Z,1.10
2022-12-08T14:52:45.242Z,0.96
2022-12-08T14:55:37.723Z,0.88
2022-12-08T14:58:30.383Z,0.81
2022-12-08T15:01:23.629Z,0.64
2022-12-08T15:04:16.618Z,0.56
2022-12-08T15:07:16.579Z,0.48
2022-12-08T15:10:20.089Z,0.37
2022-12-08T15:13:10.307Z,0.33
2022-12-08T15:15:58.096Z,0.25
2022-12-08T15:18:45.390Z,0.21
2022-12-08T15:21:38.398Z,0.17
2022-12-08T15:24:30.055Z,0.07
2022-12-08T15:27:23.461Z,0.07
2022-12-08T15:30:17.536Z,0.16
2022-12-08T15:33:04.616Z,0.14
2022-12-08T15:39:03.055Z,0.10
2022-12-08T15:41:50.163Z,0.29
2022-12-08T15:44:37.270Z,0.24
2022-12-08T15:47:25.152Z,0.34
2022-12-08T15:50:20.700Z,0.30
2022-12-08T15:53:10.689Z,0.62
2022-12-08T15:59:18.303Z,0.48
2022-12-08T16:02:19.420Z,0.50
2022-12-08T16:05:42.875Z,0.33
2022-12-08T16:08:44.964Z,0.44
2022-12-08T16:12:08.838Z,0.28
2022-12-08T16:18:12.931Z,0.43
2022-12-08T16:24:11.640Z,0.42
2022-12-08T16:30:18.637Z,0.12
2022-12-08T16:33:06.291Z,0.15
2022-12-08T16:35:56.862Z,0.24
2022-12-08T16:38:45.111Z,0.17
2022-12-08T16:41:51.679Z,0.16
2022-12-08T16:44:44.064Z,0.08
2022-12-08T16:47:31.977Z,0.12
2022-12-08T16:50:34.670Z,0.41
2022-12-08T16:53:27.023Z,0.61
2022-12-08T16:56:35.651Z,0.57
2022-12-08T16:59:23.184Z,0.78
2022-12-08T17:02:16.585Z,0.52
2022-12-08T17:05:05.069Z,0.36
2022-12-08T17:07:55.456Z,0.54
2022-12-08T17:10:43.172Z,0.27
2022-12-08T17:13:33.501Z,0.53
2022-12-08T17:16:23.997Z,0.46
2022-12-08T17:19:14.029Z,0.57
2022-12-08T17:22:02.454Z,0.43
2022-12-08T17:24:49.933Z,0.31
2022-12-08T17:27:37.534Z,0.27
2022-12-08T17:30:25.501Z,0.07
2022-12-08T17:33:12.974Z,0.11
2022-12-08T17:36:00.283Z,0.33
2022-12-08T17:38:47.670Z,0.01
2022-12-08T17:41:35.945Z,0.32
2022-12-08T17:44:25.303Z,0.28
2022-12-08T17:47:12.950Z,0.24
2022-12-08T17:50:01.442Z,0.33
2022-12-08T17:52:51.949Z,0.43
2022-12-08T17:55:41.477Z,0.10
2022-12-08T17:58:32.576Z,0.13
2022-12-08T18:01:20.883Z,0.23
2022-12-08T18:04:10.827Z,0.33
2022-12-08T18:07:01.142Z,0.07
2022-12-08T18:09:48.779Z,0.12
2022-12-08T18:12:36.778Z,0.05
2022-12-08T18:15:25.133Z,-0.33
2022-12-08T18:18:12.546Z,-0.38
2022-12-08T18:21:03.174Z,-0.48
2022-12-08T18:23:52.195Z,-0.49
2022-12-08T18:26:40.314Z,-0.63
2022-12-08T18:29:29.933Z,-0.68
2022-12-08T18:32:17.331Z,-1.23
2022-12-08T18:35:05.600Z,-0.95
2022-12-08T18:37:53.434Z,-0.97
2022-12-08T18:40:41.104Z,-1.41
2022-12-08T18:43:28.807Z,-1.42
2022-12-08T18:46:21.437Z,-1.30
2022-12-08T18:49:14.210Z,-1.30
2022-12-08T18:52:02.033Z,-1.18
2022-12-08T18:55:05.873Z,-1.25
2022-12-08T18:57:54.488Z,-1.51
2022-12-08T19:00:42.760Z,-1.39
2022-12-08T19:03:30.187Z,-1.70
2022-12-08T19:06:19.246Z,-1.67
2022-12-08T19:09:12.371Z,-1.65
2022-12-08T19:12:00.224Z,-1.91
2022-12-08T19:14:49.017Z,-1.77
2022-12-08T19:17:37.071Z,-1.90
2022-12-08T19:20:25.208Z,-2.29
2022-12-08T19:23:14.642Z,-2.24
2022-12-08T19:26:03.469Z,-2.27
2022-12-08T19:28:51.277Z,-2.09
2022-12-08T19:31:39.040Z,-1.68
2022-12-08T19:34:26.964Z,-1.79
2022-12-08T19:37:15.549Z,-1.63
2022-12-08T19:40:27.201Z,-1.40
2022-12-08T19:43:38.679Z,-1.17
2022-12-08T19:46:29.066Z,-1.30
2022-12-08T19:49:17.092Z,-1.26
2022-12-08T19:52:05.763Z,-1.40
2022-12-08T19:54:53.629Z,-1.56
2022-12-08T19:57:41.645Z,-1.51
2022-12-08T20:00:32.113Z,-1.55
2022-12-08T20:03:22.053Z,-1.14
2022-12-08T20:06:17.175Z,-1.20
2022-12-08T20:09:05.170Z,-1.14
2022-12-08T20:11:54.872Z,-1.09
2022-12-08T20:14:46.064Z,-1.11
2022-12-08T20:17:34.798Z,-1.00
2022-12-08T20:20:24.096Z,-1.16
2022-12-08T20:23:12.266Z,-0.99
2022-12-08T20:26:00.031Z,-0.84
2022-12-08T20:28:48.179Z,-1.00
2022-12-08T20:31:37.629Z,-0.79
2022-12-08T20:34:27.495Z,-0.83
2022-12-08T20:37:15.058Z,-0.89
2022-12-08T20:40:02.882Z,-0.93
2022-12-08T20:42:52.130Z,-0.79
2022-12-08T20:45:40.769Z,-0.80
2022-12-08T20:48:28.598Z,-0.77
2022-12-08T20:51:20.557Z,-0.64
2022-12-08T20:54:10.284Z,-0.81
2022-12-08T20:57:02.076Z,-1.06
2022-12-08T20:59:50.871Z,-1.01
2022-12-08T21:02:43.205Z,-0.91
2022-12-08T21:05:32.749Z,-0.91
2022-12-08T21:08:20.901Z,-0.54
2022-12-08T21:11:09.523Z,-0.72
2022-12-08T21:13:57.028Z,-0.69
2022-12-08T21:16:44.572Z,-0.76
2022-12-08T21:22:02.472Z,-0.66
2022-12-08T21:24:49.646Z,-0.77
2022-12-08T21:27:37.787Z,-0.81
2022-12-08T21:30:24.914Z,-0.84
2022-12-08T21:33:12.099Z,-0.97
2022-12-08T21:36:10.139Z,-1.06
2022-12-08T21:39:00.806Z,-1.14
2022-12-08T21:42:06.372Z,-1.19
2022-12-08T21:44:53.686Z,-1.13
2022-12-08T21:47:41.326Z,-1.16
2022-12-08T21:50:28.533Z,-1.15
2022-12-08T21:53:15.630Z,-0.93
2022-12-08T21:56:07.773Z,-1.15
2022-12-08T21:58:54.968Z,-1.19
2022-12-08T22:01:43.586Z,-1.32
2022-12-08T22:04:31.138Z,-1.43
2022-12-08T22:07:20.049Z,-1.50
2022-12-08T22:10:08.717Z,-1.62
2022-12-08T22:12:56.242Z,-1.67
2022-12-08T22:15:43.306Z,-1.80
2022-12-08T22:18:30.761Z,-1.72
2022-12-08T22:21:18.428Z,-1.71
2022-12-08T22:24:06.468Z,-1.63
2022-12-08T22:26:54.089Z,-1.63
2022-12-08T22:29:41.379Z,-1.65
2022-12-08T22:32:28.643Z,-1.65
2022-12-08T22:35:15.918Z,-1.66
2022-12-08T22:38:03.149Z,-1.76
2022-12-08T22:40:50.406Z,-1.74
2022-12-08T22:43:37.703Z,-1.86
2022-12-08T22:46:26.967Z,-1.86
2022-12-08T22:49:14.340Z,-2.08
2022-12-08T22:52:01.493Z,-2.08
2022-12-08T22:54:48.883Z,-2.21
2022-12-08T22:57:35.991Z,-2.29
2022-12-08T23:00:23.248Z,-2.39
2022-12-08T23:03:10.480Z,-2.43
2022-12-08T23:05:57.631Z,-2.44
2022-12-08T23:08:45.865Z,-2.46
2022-12-08T23:11:33.096Z,-2.29
2022-12-08T23:14:20.298Z,-2.17
2022-12-08T23:17:07.538Z,-2.23
2022-12-08T23:19:54.704Z,-2.34
2022-12-08T23:22:42.065Z,-2.44
2022-12-08T23:25:29.115Z,-2.45
2022-12-08T23:28:16.199Z,-2.60
2022-12-08T23:31:08.042Z,-2.65
2022-12-08T23:33:55.585Z,-2.72
2022-12-08T23:36:42.875Z,-2.63
2022-12-08T23:39:30.156Z,-2.62
2022-12-08T23:42:17.215Z,-2.52
2022-12-08T23:45:05.498Z,-2.42
2022-12-08T23:47:52.670Z,-2.32
2022-12-08T23:50:39.716Z,-2.19
2022-12-08T23:53:28.444Z,-2.08
2022-12-08T23:56:17.946Z,-2.06
2022-12-08T23:59:05.180Z,-1.90
